Metar z połowy godziny Komunikat METAR ze strony awiacja.imgw.pl Metar G00 EPGD METAR EPGD 261730Z 28011KT 1000 R29/1900D SHSN FEW002 SCT007 BKN012TCU M00/M02 Q1005 R11/290095 =